Airport Name : Busselton

Other Name : Busselton

ICAO : YBLN

IATA :

FAA :

Latitude : -33.6925

Longitude : 115.395278

Country : Australia

Local Date and Time : 24 Jan 2021 14:37

 

TAF (Terminal Aerodrome Forecast)

TAF YBLN 240444Z 2406/2506 24016KT CAVOK FM240930 22010KT CAVOK FM241500 VRB03KT CAVOK FM250000 20008KT 9999 -SHRA SCT025 PROB30 2420/2423 0300 FG

 

METAR (METeorological Aerodrome Report)

YBLN 240630Z AUTO 23016KT 9999 // SCT059 SCT068 BKN078 26/10 Q1006

YBLN 240600Z AUTO 21012KT 9999 // BKN069 OVC078 25/10 Q1006

YBLN 240530Z AUTO 25009KT 210V300 9999 // SCT063 OVC079 26/09 Q1005

YBLN 240500Z AUTO 23012KT 9999 // SCT054 BKN075 25/09 Q1006

YBLN 240430Z AUTO 22012KT 9999 // SCT055 OVC077 24/12 Q1006

YBLN 240400Z AUTO 21010KT 200V260 9999 // SCT049 BKN065 OVC079 24/11 Q1006

YBLN 240330Z AUTO 20008KT 200V270 9999 // SCT050 SCT059 BKN070 24/11 Q1006

YBLN 240300Z AUTO 24010KT 9999 // SCT049 BKN054 OVC063 23/12 Q1006

To Charter a Jet Click here.